• Join FlightAware (Why Join?)
  • Login
  • US Flag 
11:05PM EDT


 

Airport Tracker/Info


-or-


 

Live Flight TrackerFlight Track Log ✈ EJA982 ✈ 21-May-2013 ✈ KSUA - KSRQ

Flight Track Log - Related Links

Times and Time Zones

All times are in EDT time to prevent confusion due to time zone crossing. See the EJA982 flight status page for this flight to view local times or setup timezone preferences in your user account.

Time Position Orientation Groundspeed Altitude Reporting Facility
EDT Latitude Longitude Course Direction KTS MPH feet Rate Location/Type
07:08PM 27.1703 -80.1861 117° Southeast 194 223 2,200  Level Miami Center
07:09PM 27.1406 -80.1197 117° Southeast 227 261 4,100 1,320 Climbing Miami Center
07:10PM 27.0958 -80.1489 210° Southwest 267 307 4,900 1,200 Climbing Miami Center
07:11PM 27.1236 -80.2219 293° West 261 300 6,600 2,040 Climbing Miami Center
07:12PM 27.1525 -80.3161 289° West 274 315 9,000 1,200 Climbing Miami Center
07:13PM 27.1589 -80.4003 275° West 290 334 9,000  Level Miami Center
07:14PM 27.1631 -80.4869 273° West 290 334 9,000 480 Level Miami Center
07:15PM 27.1694 -80.5689 275° West 290 334 10,000 1,920 Climbing Miami Center
07:16PM 27.1753 -80.6669 274° West 307 353 12,900 1,680 Climbing Miami Center
07:17PM 27.1861 -80.8028 275° West 381 438 13,400 480 Climbing Miami Center
07:18PM 27.2014 -80.9294 278° West 411 473 13,900 300 Climbing Miami Center
07:19PM 27.2167 -81.0561 278° West 411 473 14,000  Climbing Miami Center
07:20PM 27.2319 -81.1756 278° West 417 480 14,000  Level Miami Center
07:21PM 27.2469 -81.3022 278° West 412 474 14,000 -60 Level Miami Center
07:22PM 27.2653 -81.4431 278° West 412 474 13,900 -120 Descending Miami Center
07:23PM 27.2803 -81.5675 278° West 412 474 13,800 -1,080 Descending Miami Center
07:24PM 27.2933 -81.6781 278° West 396 456 11,800 -1,800 Descending Miami Center
07:25PM 27.3028 -81.7694 277° West 351 404 10,300 -1,500 Descending Miami Center
07:26PM 27.3144 -81.8564 279° West 316 364 8,800 -1,500 Descending Miami Center
07:27PM 27.3258 -81.9408 279° West 284 327 7,300 -1,500 Descending Miami Center
07:28PM 27.3353 -82.0303 277° West 284 327 5,800 -1,200 Descending Miami Center
07:29PM 27.3492 -82.1103 281° West 278 320 4,900 -480 Descending Miami Center
07:30PM 27.3711 -82.1931 287° West 272 313 4,900 -480 Level Miami Center
07:31PM 27.3869 -82.2733 283° West 272 313 4,000 -1,200 Descending Miami Center
07:32PM 27.4072 -82.3444 288° West 260 299 2,500 -780 Descending Miami Center
07:33PM 27.4256 -82.4083 288° West 247 284 2,500 -180 Level Miami Center
07:33PM 27.4333 -82.4500 282° West 236 272 2,300 -660 Descending Tampa TRACON
07:34PM 27.4500 -82.5167 286° West 221 254 1,600 -660 Descending Tampa TRACON
07:35PM 27.4500 -82.5833 270° West 200 230 1,000 -720 Descending Tampa TRACON
07:36PM 27.4167 -82.5667 156° South 138 159 200 -840 Descending Tampa TRACON
07:38PM 27.3954 -82.5544 156° South  Level Estimated
07:45PM 27.3954 -82.5544 156° South  Level Estimated
07:46PM 27.3954 -82.5544 156° South  Level Estimated